Time;durP1;ratioP1;P1;durP2;ratioP2;P2;SDS_P1;SDS_P2;PMS_P1;PMS_P2;Temp;Humidity;BMP_temperature;BMP_pressure;BME280_temperature;BME280_humidity;BME280_pressure;Samples;Min_cycle;Max_cycle;Signal;HPM_P1;HPM_P2
2022/05/12 03:58:33;;;;;;;15.63;11.20;;;;;;;16.36;75.55;100603.00;5606617;31;80515;-54
2022/05/12 04:01:36;;;;;;;15.05;11.20;;;;;;;16.36;75.55;100603.00;5583112;31;33414;-55
2022/05/12 04:04:41;;;;;;;17.70;10.82;;;;;;;16.05;74.62;100608.41;5583685;31;33525;-55
2022/05/12 04:07:44;;;;;;;13.93;11.18;;;;;;;15.91;79.04;100609.31;5583690;31;34230;-55
2022/05/12 04:10:46;;;;;;;14.13;10.45;;;;;;;15.95;76.37;100612.19;5583353;31;33210;-55
2022/05/12 04:13:48;;;;;;;14.27;11.23;;;;;;;16.11;74.22;100613.37;5583612;31;33701;-55
2022/05/12 04:16:50;;;;;;;14.35;10.40;;;;;;;16.09;78.21;100620.19;5583280;31;34198;-55
2022/05/12 04:19:53;;;;;;;13.43;10.60;;;;;;;16.14;75.18;100615.47;5583722;31;34244;-55
2022/05/12 04:22:55;;;;;;;19.23;10.77;;;;;;;16.19;77.90;100622.63;5583571;31;34453;-55
2022/05/12 04:25:57;;;;;;;16.33;11.38;;;;;;;16.30;75.99;100613.16;5583398;32;33693;-55
2022/05/12 04:29:00;;;;;;;13.50;11.12;;;;;;;16.35;75.20;100618.41;5566097;32;33234;-55
2022/05/12 04:32:03;;;;;;;15.00;12.07;;;;;;;16.67;74.22;100613.75;5563895;32;33529;-55
2022/05/12 04:35:14;;;;;;;16.65;12.88;;;;;;;16.77;73.58;100621.59;5564006;32;34333;-55
2022/05/12 04:38:16;;;;;;;20.52;13.45;;;;;;;16.71;79.81;100628.22;5563753;32;33799;-55
2022/05/12 04:41:19;;;;;;;13.90;12.45;;;;;;;16.69;74.81;100627.75;5563871;32;33721;-55
2022/05/12 04:44:21;;;;;;;13.82;11.88;;;;;;;16.84;74.79;100621.91;5563565;32;33626;-55
2022/05/12 04:47:23;;;;;;;15.30;12.88;;;;;;;16.90;74.96;100636.91;5563618;32;33200;-55
2022/05/12 04:50:30;;;;;;;17.52;13.95;;;;;;;16.96;75.27;100634.84;5570950;32;34372;-55
2022/05/12 04:53:33;;;;;;;14.95;12.98;;;;;;;17.06;76.25;100639.94;5580196;32;34369;-55
2022/05/12 04:56:39;;;;;;;21.58;15.10;;;;;;;17.16;82.82;100644.28;5576493;32;33435;-56
2022/05/12 04:59:42;;;;;;;23.02;16.15;;;;;;;17.25;76.11;100641.53;5578956;32;33691;-56
2022/05/12 05:02:44;;;;;;;18.55;15.85;;;;;;;17.51;76.53;100644.25;5581892;32;34311;-55
2022/05/12 05:05:48;;;;;;;19.92;16.50;;;;;;;17.65;74.92;100635.94;5580242;32;34293;-56
2022/05/12 05:08:50;;;;;;;21.87;16.75;;;;;;;17.76;74.84;100645.34;5572446;31;34440;-55
2022/05/12 05:11:53;;;;;;;19.90;15.18;;;;;;;17.93;74.06;100647.25;5568104;32;33628;-55
2022/05/12 05:14:56;;;;;;;20.37;15.00;;;;;;;18.12;75.26;100647.69;5563228;32;34181;-55
2022/05/12 05:17:58;;;;;;;20.52;14.68;;;;;;;18.31;73.22;100642.69;5563656;32;33776;-55
2022/05/12 05:21:00;;;;;;;20.00;14.52;;;;;;;18.54;72.77;100645.09;5567657;32;33377;-55
2022/05/12 05:24:03;;;;;;;22.50;14.82;;;;;;;18.82;73.61;100650.13;5566704;32;33806;-55
2022/05/12 05:27:06;;;;;;;17.02;13.45;;;;;;;19.02;73.18;100641.19;5563508;32;33658;-56
2022/05/12 05:30:12;;;;;;;20.05;15.48;;;;;;;19.28;71.27;100637.50;5567214;32;33675;-55
2022/05/12 05:33:14;;;;;;;26.67;14.75;;;;;;;19.41;67.23;100647.28;5566964;32;33724;-57
2022/05/12 05:36:16;;;;;;;21.58;12.65;;;;;;;19.48;67.50;100645.62;5563733;32;32943;-56
2022/05/12 05:39:25;;;;;;;14.48;9.68;;;;;;;19.61;67.68;100651.91;5563703;32;34575;-55
2022/05/12 05:42:27;;;;;;;11.00;7.72;;;;;;;19.78;67.16;100642.81;5566801;32;34507;-55
2022/05/12 05:45:29;;;;;;;14.57;8.32;;;;;;;19.94;63.00;100649.19;5565261;32;34306;-55
2022/05/12 05:48:32;;;;;;;11.05;7.82;;;;;;;19.99;61.64;100642.72;5564936;32;34323;-56
2022/05/12 05:54:56;;;;;;;10.48;7.75;;;;;;;20.15;60.03;100649.12;5569128;32;33440;-55
2022/05/12 05:58:03;;;;;;;11.30;7.93;;;;;;;20.24;59.92;100653.69;5568574;32;33076;-56
2022/05/12 06:01:06;;;;;;;11.93;7.90;;;;;;;20.34;60.70;100654.03;5567265;32;33682;-55
2022/05/12 06:04:08;;;;;;;11.82;8.10;;;;;;;20.33;59.20;100652.44;5551758;32;33621;-55
2022/05/12 06:07:11;;;;;;;10.75;8.13;;;;;;;20.35;58.69;100652.09;5549366;32;34192;-55
2022/05/12 06:10:13;;;;;;;11.45;8.05;;;;;;;20.44;59.72;100652.00;5548946;32;34298;-55
2022/05/12 06:13:16;;;;;;;11.75;7.78;;;;;;;20.60;60.15;100651.00;5553882;32;33647;-57
2022/05/12 06:16:19;;;;;;;12.70;8.95;;;;;;;20.69;60.50;100661.75;5554822;32;33318;-55
2022/05/12 06:19:21;;;;;;;11.73;8.73;;;;;;;20.81;59.93;100661.75;5551663;32;34374;-55
2022/05/12 06:22:25;;;;;;;34.83;10.43;;;;;;;20.99;59.44;100653.31;5549157;32;34362;-56
2022/05/12 06:25:27;;;;;;;16.73;9.38;;;;;;;21.18;58.32;100660.91;5549602;32;33471;-55
2022/05/12 06:28:30;;;;;;;13.57;8.65;;;;;;;21.23;58.30;100671.56;5549134;32;34345;-56
2022/05/12 06:31:33;;;;;;;11.25;8.23;;;;;;;21.25;59.68;100659.16;5549638;32;33423;-55
2022/05/12 06:34:36;;;;;;;11.88;8.65;;;;;;;21.55;58.68;100656.12;5549150;32;33977;-55
2022/05/12 06:37:39;;;;;;;11.27;8.85;;;;;;;21.62;58.00;100659.06;5549463;32;33628;-55
2022/05/12 06:40:41;;;;;;;11.12;9.60;;;;;;;21.68;57.46;100648.69;5548636;32;33799;-55
2022/05/12 06:43:45;;;;;;;11.52;8.63;;;;;;;21.66;55.35;100648.25;5549233;32;33731;-56
2022/05/12 06:46:48;;;;;;;12.43;8.75;;;;;;;21.54;56.76;100655.34;5549301;32;34339;-56
2022/05/12 06:49:52;;;;;;;10.07;8.85;;;;;;;21.67;57.70;100656.09;5549399;32;33814;-55
2022/05/12 06:52:54;;;;;;;14.10;10.20;;;;;;;21.74;59.22;100652.75;5549116;32;33595;-55
2022/05/12 06:55:57;;;;;;;15.45;9.50;;;;;;;21.85;56.95;100651.09;5548596;32;34226;-56
2022/05/12 06:58:59;;;;;;;13.62;9.38;;;;;;;21.72;55.66;100652.31;5548477;32;33603;-55
2022/05/12 07:02:01;;;;;;;15.23;10.02;;;;;;;21.68;56.93;100651.44;5549129;32;34206;-56
2022/05/12 07:05:04;;;;;;;12.35;9.95;;;;;;;21.76;57.79;100661.41;5549068;32;33768;-56
2022/05/12 07:08:08;;;;;;;10.43;8.27;;;;;;;21.97;57.07;100658.44;5549085;32;33729;-55
2022/05/12 07:11:11;;;;;;;15.55;9.00;;;;;;;22.03;57.23;100660.56;5548943;32;33601;-55
2022/05/12 07:14:14;;;;;;;15.13;9.57;;;;;;;22.00;55.70;100664.00;5556623;32;33749;-56
2022/05/12 07:17:20;;;;;;;19.95;9.93;;;;;;;21.99;56.23;100658.88;5558442;32;33737;-56
2022/05/12 07:27:23;;;;;;;12.73;8.68;;;;;;;22.37;56.58;100657.50;5552993;32;33696;-56
2022/05/12 07:31:00;;;;;;;14.77;8.55;;;;;;;22.49;55.48;100650.03;5548237;32;33649;-55
2022/05/12 07:33:47;;;;;;;16.00;8.98;;;;;;;22.51;55.12;100655.13;5548711;32;34348;-56
2022/05/12 07:36:51;;;;;;;13.43;8.40;;;;;;;22.51;56.24;100647.72;5548357;32;34407;-55
2022/05/12 07:39:54;;;;;;;16.65;8.90;;;;;;;22.61;54.54;100651.06;5548706;32;33743;-55
2022/05/12 07:42:56;;;;;;;11.30;8.38;;;;;;;22.78;55.47;100649.88;5548817;32;33567;-55
2022/05/12 07:46:03;;;;;;;10.90;8.38;;;;;;;22.80;55.77;100644.84;5548889;32;33545;-56
2022/05/12 07:49:05;;;;;;;14.70;8.07;;;;;;;22.79;55.41;100643.28;5548338;32;33599;-56
2022/05/12 07:52:11;;;;;;;12.80;8.45;;;;;;;22.81;55.02;100647.22;5548599;32;33309;-56
2022/05/12 07:55:13;;;;;;;12.07;8.18;;;;;;;22.91;54.01;100637.66;5548841;32;33617;-56
2022/05/12 07:58:16;;;;;;;15.05;8.23;;;;;;;22.99;53.16;100636.72;5548056;32;33448;-56
2022/05/12 08:01:20;;;;;;;15.50;8.48;;;;;;;23.04;54.01;100632.91;5548655;32;34223;-55
2022/05/12 08:04:22;;;;;;;12.52;9.20;;;;;;;23.12;53.01;100645.59;5556204;32;33620;-55
2022/05/12 08:07:26;;;;;;;18.27;8.35;;;;;;;23.14;52.65;100637.81;5550519;32;34182;-56
2022/05/12 08:10:28;;;;;;;15.85;8.98;;;;;;;23.19;53.53;100645.72;5567610;32;34351;-55
2022/05/12 08:13:32;;;;;;;11.95;8.43;;;;;;;23.30;52.66;100646.72;5568043;32;34523;-55
2022/05/12 08:16:34;;;;;;;13.52;8.65;;;;;;;23.34;52.35;100650.31;5560704;32;33584;-55
2022/05/12 08:19:37;;;;;;;16.30;7.82;;;;;;;23.36;52.93;100641.78;5567561;32;33728;-57
2022/05/12 08:22:41;;;;;;;15.15;7.62;;;;;;;23.45;51.39;100653.31;5555254;32;33619;-56
2022/05/12 08:25:45;;;;;;;14.13;8.15;;;;;;;23.53;50.42;100649.53;5557863;32;33666;-55
2022/05/12 08:28:50;;;;;;;19.35;7.93;;;;;;;23.60;50.79;100643.41;5554997;32;34323;-55
2022/05/12 08:31:52;;;;;;;10.98;7.80;;;;;;;23.62;50.50;100647.37;5556310;32;34260;-56
2022/05/12 08:34:54;;;;;;;10.85;7.40;;;;;;;23.68;51.06;100639.69;5557917;32;33788;-56
2022/05/12 08:37:57;;;;;;;14.23;7.80;;;;;;;23.65;50.81;100641.19;5555964;32;33707;-55
2022/05/12 08:41:21;;;;;;;10.18;7.40;;;;;;;23.78;51.62;100650.06;5555853;32;33832;-56
2022/05/12 08:44:23;;;;;;;13.05;7.70;;;;;;;23.78;50.63;100644.56;5558179;32;34384;-56
2022/05/12 08:47:32;;;;;;;9.25;7.22;;;;;;;23.72;49.37;100640.56;5560055;32;34457;-55
2022/05/12 08:50:34;;;;;;;13.68;7.12;;;;;;;23.76;49.72;100649.59;5560129;32;34410;-56
2022/05/12 08:53:45;;;;;;;10.43;6.93;;;;;;;23.83;50.89;100647.00;5559399;32;33581;-55
2022/05/12 08:56:53;;;;;;;15.45;6.97;;;;;;;23.87;49.75;100641.59;5558646;32;34312;-56
2022/05/12 08:59:57;;;;;;;15.07;7.00;;;;;;;23.97;50.58;100649.19;5562677;32;33653;-55
2022/05/12 09:03:27;;;;;;;10.52;6.32;;;;;;;24.01;50.29;100652.81;5570051;32;34332;-55
2022/05/12 09:06:49;;;;;;;10.93;6.70;;;;;;;24.11;51.11;100654.16;5570132;32;32219;-55
2022/05/12 09:10:10;;;;;;;15.75;7.05;;;;;;;24.13;50.08;100655.34;5569844;32;34366;-55
2022/05/12 09:13:50;;;;;;;13.93;7.40;;;;;;;24.19;49.49;100646.84;5552598;32;33669;-56
2022/05/12 09:16:53;;;;;;;13.57;8.05;;;;;;;24.30;49.61;100640.37;5550224;32;34270;-56
2022/05/12 09:19:59;;;;;;;11.63;7.07;;;;;;;24.37;49.28;100648.72;5550029;32;33650;-55
2022/05/12 09:23:02;;;;;;;19.15;7.37;;;;;;;24.41;50.28;100645.28;5550200;32;34020;-55
2022/05/12 09:26:43;;;;;;;16.10;7.10;;;;;;;24.54;50.13;100654.88;5550020;32;34431;-55
2022/05/12 09:29:48;;;;;;;11.90;7.62;;;;;;;24.56;49.80;100649.81;5550365;32;33699;-56
2022/05/12 09:32:57;;;;;;;13.20;7.50;;;;;;;24.60;50.12;100653.38;5550215;32;34418;-55
2022/05/12 09:36:04;;;;;;;13.80;7.95;;;;;;;24.71;50.19;100648.06;5550439;32;33786;-55
2022/05/12 09:39:07;;;;;;;13.18;7.30;;;;;;;24.84;48.89;100655.72;5549933;32;33785;-55
2022/05/12 09:42:40;;;;;;;18.12;6.87;;;;;;;24.89;50.35;100659.28;5549629;32;34543;-56
2022/05/12 09:45:57;;;;;;;10.35;6.57;;;;;;;24.89;48.59;100646.34;5549948;32;33923;-56
2022/05/12 09:49:23;;;;;;;12.25;6.60;;;;;;;24.93;49.23;100643.66;5562140;32;32396;-57
2022/05/12 09:52:39;;;;;;;76.07;11.10;;;;;;;25.02;48.38;100649.66;5565372;32;33669;-56
2022/05/12 09:55:57;;;;;;;22.02;7.45;;;;;;;25.13;49.21;100642.38;5567156;31;34301;-56
2022/05/12 09:59:19;;;;;;;13.15;6.80;;;;;;;25.11;48.29;100641.19;5566920;32;33794;-55
2022/05/12 10:09:20;;;;;;;12.13;6.50;;;;;;;25.38;46.40;100623.50;5567643;32;33646;-55
2022/05/12 10:12:26;;;;;;;12.02;6.68;;;;;;;25.47;47.02;100625.97;5568170;32;33614;-56
2022/05/12 10:15:39;;;;;;;14.05;6.07;;;;;;;25.60;46.59;100618.25;5568552;32;33315;-56
2022/05/12 10:18:54;;;;;;;10.55;6.05;;;;;;;25.63;46.71;100611.97;5562122;31;34306;-56
2022/05/12 10:22:10;;;;;;;;;;;;;;;25.62;47.13;100610.41;5563228;32;33378;-56
2022/05/12 10:25:35;;;;;;;12.77;6.80;;;;;;;25.76;46.19;100607.81;5565813;32;34038;-55
2022/05/12 10:28:48;;;;;;;9.75;6.03;;;;;;;25.73;47.26;100611.31;5564057;32;34344;-55
2022/05/12 10:32:03;;;;;;;13.98;6.70;;;;;;;25.80;46.62;100605.94;5556381;32;34469;-56
2022/05/12 10:35:47;;;;;;;9.20;6.22;;;;;;;25.78;45.97;100597.25;5557547;32;32143;-56
2022/05/12 10:39:07;;;;;;;12.65;6.62;;;;;;;25.77;47.15;100593.72;5531349;32;34300;-57
2022/05/12 10:42:26;;;;;;;13.62;7.07;;;;;;;25.85;46.37;100594.59;5566932;32;34283;-56
2022/05/12 10:45:54;;;;;;;10.32;6.53;;;;;;;26.05;46.34;100588.88;5569026;32;33753;-55
2022/05/12 10:49:23;;;;;;;11.77;5.93;;;;;;;25.96;46.34;100602.91;5569003;32;34251;-55
2022/05/12 10:53:03;;;;;;;8.77;5.50;;;;;;;26.09;42.89;100595.16;5568412;32;34265;-56
2022/05/12 10:56:23;;;;;;;14.45;6.75;;;;;;;26.07;43.35;100595.56;5560825;32;33632;-56
2022/05/12 10:59:46;;;;;;;10.45;5.95;;;;;;;26.09;43.79;100598.69;5568767;32;34302;-56
2022/05/12 11:02:54;;;;;;;6.90;5.83;;;;;;;26.10;45.35;100594.03;5568505;32;33642;-56
2022/05/12 11:06:02;;;;;;;8.07;5.87;;;;;;;26.09;43.82;100595.94;5568480;32;34377;-55
2022/05/12 11:09:19;;;;;;;11.82;5.97;;;;;;;26.19;42.89;100595.28;5568704;32;33352;-56
2022/05/12 11:12:31;;;;;;;14.13;6.15;;;;;;;26.18;43.64;100577.19;5568301;32;34380;-55
2022/05/12 11:16:02;;;;;;;9.10;5.53;;;;;;;26.23;44.70;100579.59;5568657;32;33937;-57
2022/05/12 11:19:18;;;;;;;15.68;6.53;;;;;;;26.30;44.00;100569.81;5545601;31;34295;-56
2022/05/12 11:22:30;;;;;;;7.93;6.25;;;;;;;26.41;44.12;100574.19;5568894;32;33743;-56
2022/05/12 11:26:00;;;;;;;10.32;5.40;;;;;;;26.61;43.80;100572.00;5568352;32;34446;-56
2022/05/12 11:32:54;;;;;;;8.07;6.12;;;;;;;26.73;42.87;100556.34;5568397;32;33778;-56
2022/05/12 11:35:58;;;;;;;13.10;5.70;;;;;;;26.67;42.68;100551.22;5565324;32;34410;-56
2022/05/12 11:39:19;;;;;;;12.55;6.37;;;;;;;26.67;43.38;100553.19;5565603;32;34411;-56
2022/05/12 11:42:25;;;;;;;8.55;5.68;;;;;;;26.82;43.36;100543.81;5562907;32;33746;-56
2022/05/12 11:45:36;;;;;;;10.05;6.12;;;;;;;26.81;44.66;100541.44;5558211;32;33788;-56
2022/05/12 11:48:50;;;;;;;9.70;6.00;;;;;;;26.88;44.10;100544.22;5556354;32;34021;-56
2022/05/12 11:52:00;;;;;;;10.05;5.50;;;;;;;26.85;44.31;100548.53;5565680;32;33758;-56
2022/05/12 11:55:20;;;;;;;10.13;5.55;;;;;;;26.85;42.33;100545.00;5567543;32;35035;-56
2022/05/12 11:58:37;;;;;;;6.90;5.30;;;;;;;26.91;43.68;100546.97;5565426;32;33708;-57
2022/05/12 12:01:39;;;;;;;8.63;5.37;;;;;;;27.03;41.70;100531.31;5567659;32;33522;-56
2022/05/12 12:04:49;;;;;;;7.85;4.85;;;;;;;26.97;40.99;100530.12;5552125;32;34615;-56
2022/05/12 12:07:53;;;;;;;7.60;5.20;;;;;;;27.04;40.78;100533.66;5567830;32;34271;-56
2022/05/12 12:11:15;;;;;;;6.28;4.97;;;;;;;27.31;38.67;100530.62;5567493;32;34312;-56
2022/05/12 12:14:42;;;;;;;9.60;4.97;;;;;;;27.37;38.04;100529.84;5557666;32;33576;-56
2022/05/12 12:17:45;;;;;;;7.80;4.60;;;;;;;27.67;37.49;100530.66;5557570;32;33772;-57
2022/05/12 12:20:50;;;;;;;11.85;4.68;;;;;;;27.52;38.39;100529.88;5559798;32;33705;-56
2022/05/12 12:24:08;;;;;;;8.60;4.60;;;;;;;27.51;37.59;100517.28;5557720;32;34411;-56
2022/05/12 12:27:32;;;;;;;10.38;4.95;;;;;;;27.53;38.45;100510.19;5550655;32;34291;-56
2022/05/12 12:30:39;;;;;;;7.47;4.40;;;;;;;27.54;39.31;100519.25;5550888;32;33599;-56
2022/05/12 12:34:03;;;;;;;11.23;4.85;;;;;;;27.72;37.30;100524.78;5550448;32;33875;-56
2022/05/12 12:37:09;;;;;;;7.05;4.45;;;;;;;27.96;35.39;100520.47;5563537;32;33747;-55
2022/05/12 12:40:29;;;;;;;;;;;;;;;27.98;35.04;100505.09;5550786;32;34282;-56
2022/05/12 12:43:40;;;;;;;9.07;4.18;;;;;;;27.89;35.56;100510.22;5550307;32;34076;-56
2022/05/12 12:46:52;;;;;;;10.70;4.05;;;;;;;27.77;36.37;100507.87;5550694;32;33765;-57
2022/05/12 12:49:58;;;;;;;6.45;4.32;;;;;;;27.86;34.80;100505.50;5560338;32;33780;-56
2022/05/12 12:53:00;;;;;;;;;;;;;;;27.88;34.80;100497.63;5569992;32;33339;-55
2022/05/12 12:59:26;;;;;;;7.18;3.87;;;;;;;27.96;34.21;100487.41;5550583;32;33708;-56
2022/05/12 13:02:35;;;;;;;;;;;;;;;28.02;34.42;100481.09;5565141;32;34497;-55
2022/05/12 13:05:37;;;;;;;7.80;4.03;;;;;;;28.06;33.99;100487.38;5569529;32;34696;-57
2022/05/12 13:08:41;;;;;;;8.23;4.57;;;;;;;28.19;34.15;100484.97;5569759;32;33226;-56
2022/05/12 13:11:43;;;;;;;9.75;3.72;;;;;;;28.20;33.50;100488.50;5569746;32;33768;-56
2022/05/12 13:14:47;;;;;;;6.35;3.95;;;;;;;28.27;32.60;100485.72;5569788;32;33634;-56
2022/05/12 13:17:51;;;;;;;5.65;3.83;;;;;;;28.40;33.43;100491.63;5569211;32;34430;-58
2022/05/12 13:21:24;;;;;;;7.80;3.87;;;;;;;28.43;31.60;100485.31;5569533;32;33721;-57
2022/05/12 13:24:27;;;;;;;7.70;4.20;;;;;;;28.43;30.66;100477.84;5567493;32;33672;-55
2022/05/12 13:27:38;;;;;;;6.78;3.90;;;;;;;28.60;31.32;100478.16;5566453;32;33799;-56
2022/05/12 13:30:47;;;;;;;8.05;3.92;;;;;;;28.39;32.50;100471.56;5569020;32;33660;-56
2022/05/12 13:34:13;;;;;;;6.20;3.90;;;;;;;28.24;33.09;100473.53;5569117;32;34422;-56
2022/05/12 13:37:20;;;;;;;7.97;3.83;;;;;;;28.18;32.54;100474.34;5569476;32;33733;-56
2022/05/12 13:40:37;;;;;;;11.07;4.30;;;;;;;28.15;32.04;100483.44;5568562;32;33702;-56
2022/05/12 13:43:46;;;;;;;6.10;3.90;;;;;;;28.13;33.26;100488.53;5557066;32;34250;-56
2022/05/12 13:46:52;;;;;;;9.75;4.07;;;;;;;28.13;33.42;100474.75;5550101;32;33717;-56
2022/05/12 13:49:54;;;;;;;7.00;3.90;;;;;;;28.13;34.03;100469.25;5550235;32;33731;-55
2022/05/12 13:52:56;;;;;;;6.80;3.75;;;;;;;28.21;33.66;100468.84;5550834;32;33752;-56
2022/05/12 13:56:12;;;;;;;7.85;3.65;;;;;;;28.28;33.50;100474.31;5569059;32;33949;-56
2022/05/12 13:59:26;;;;;;;9.75;4.53;;;;;;;28.23;33.53;100468.44;5568142;32;33871;-56
2022/05/12 14:02:30;;;;;;;8.10;3.75;;;;;;;28.43;32.53;100466.03;5569111;32;33696;-56
2022/05/12 14:05:32;;;;;;;7.67;4.30;;;;;;;28.32;33.16;100463.28;5569450;32;33789;-56
2022/05/12 14:08:35;;;;;;;6.78;3.80;;;;;;;28.06;34.07;100462.56;5569140;32;34477;-56
2022/05/12 14:11:37;;;;;;;9.82;4.05;;;;;;;28.00;34.03;100468.88;5569166;32;33846;-56
2022/05/12 14:21:24;;;;;;;13.75;4.20;;;;;;;27.96;34.84;100454.31;5568678;32;33800;-56
2022/05/12 14:24:28;;;;;;;9.85;3.95;;;;;;;27.89;34.65;100457.09;5569087;32;33843;-56
2022/05/12 14:27:30;;;;;;;10.98;4.10;;;;;;;27.87;34.37;100457.47;5569012;31;34256;-57
2022/05/12 14:30:33;;;;;;;15.85;4.75;;;;;;;27.91;34.34;100451.97;5564428;32;35008;-56
2022/05/12 14:33:35;;;;;;;11.85;4.25;;;;;;;27.75;35.04;100449.59;5561519;32;33743;-55
2022/05/12 14:36:37;;;;;;;5.85;3.95;;;;;;;27.79;34.26;100450.44;5567163;32;33676;-56
2022/05/12 14:39:40;;;;;;;8.45;4.20;;;;;;;27.82;34.25;100442.16;5558386;32;34368;-56
2022/05/12 14:42:42;;;;;;;9.13;4.55;;;;;;;27.70;35.27;100444.50;5562555;32;33633;-56
2022/05/12 14:45:46;;;;;;;8.32;4.32;;;;;;;27.64;35.32;100442.12;5569399;32;34292;-56
2022/05/12 14:48:51;;;;;;;10.07;4.70;;;;;;;27.55;35.21;100441.78;5569194;32;34313;-56
2022/05/12 14:51:53;;;;;;;7.78;4.37;;;;;;;27.53;35.78;100435.84;5567330;32;33492;-56
2022/05/12 14:54:57;;;;;;;9.05;4.90;;;;;;;27.48;36.40;100436.25;5549768;32;34430;-56
2022/05/12 14:57:59;;;;;;;9.15;5.15;;;;;;;27.42;36.47;100437.84;5549616;32;34395;-56
